Time;durP1;ratioP1;P1;durP2;ratioP2;P2;SDS_P1;SDS_P2;PMS_P1;PMS_P2;Temp;Humidity;BMP_temperature;BMP_pressure;BME280_temperature;BME280_humidity;BME280_pressure;Samples;Min_cycle;Max_cycle;Signal;HPM_P1;HPM_P2
2024/03/22 00:01:49;;;;;;;13.73;12.43;;;10.40;99.90;;;;;;4973434;28;20428;-70
2024/03/22 00:04:15;;;;;;;14.60;12.60;;;10.30;99.90;;;;;;4965645;28;20860;-70
2024/03/22 00:06:42;;;;;;;15.07;11.70;;;10.20;99.90;;;;;;4963172;28;20483;-70
2024/03/22 00:09:08;;;;;;;14.03;12.70;;;10.20;99.90;;;;;;4960402;28;20443;-71
2024/03/22 00:11:33;;;;;;;15.47;13.23;;;10.20;99.90;;;;;;4964463;28;20436;-70
2024/03/22 00:13:59;;;;;;;15.47;11.60;;;10.10;99.90;;;;;;4965289;28;20424;-71
2024/03/22 00:16:25;;;;;;;13.03;11.63;;;10.00;99.90;;;;;;4959383;28;20196;-70
2024/03/22 00:18:50;;;;;;;14.80;12.00;;;10.00;99.90;;;;;;4962647;28;20192;-70
2024/03/22 00:21:16;;;;;;;15.77;11.80;;;10.00;99.90;;;;;;4957151;28;20193;-71
2024/03/22 00:23:42;;;;;;;15.80;11.13;;;10.00;99.90;;;;;;4953058;28;20263;-71
2024/03/22 00:26:08;;;;;;;15.20;12.00;;;10.00;99.90;;;;;;4961394;28;20594;-71
2024/03/22 00:28:33;;;;;;;15.17;11.60;;;9.90;99.90;;;;;;4959026;28;20439;-70
2024/03/22 00:30:59;;;;;;;14.90;11.67;;;9.90;99.90;;;;;;4956153;28;20199;-71
2024/03/22 00:33:24;;;;;;;13.90;12.60;;;9.80;99.90;;;;;;4954885;28;20605;-71
2024/03/22 00:35:50;;;;;;;13.63;11.53;;;9.80;99.90;;;;;;4960255;28;20639;-71
2024/03/22 00:38:15;;;;;;;10.97;9.97;;;9.70;99.90;;;;;;4958519;28;20180;-69
2024/03/22 00:40:41;;;;;;;12.70;11.37;;;9.60;99.90;;;;;;4960577;28;20198;-71
2024/03/22 00:43:07;;;;;;;15.87;12.80;;;9.50;99.90;;;;;;4971361;28;20186;-70
2024/03/22 00:45:32;;;;;;;12.63;11.30;;;9.60;99.90;;;;;;4953599;28;20168;-70
2024/03/22 00:47:58;;;;;;;17.33;13.23;;;9.60;99.90;;;;;;4954582;28;20656;-71
2024/03/22 00:50:23;;;;;;;16.83;13.53;;;9.60;99.90;;;;;;4960766;28;20201;-70
2024/03/22 00:52:51;;;;;;;14.43;12.20;;;9.60;99.90;;;;;;4951675;28;20180;-70
2024/03/22 00:55:16;;;;;;;14.10;12.60;;;9.60;99.90;;;;;;4960549;28;20180;-71
2024/03/22 00:57:42;;;;;;;16.27;12.50;;;9.50;99.90;;;;;;4954248;28;20938;-70
2024/03/22 01:00:08;;;;;;;14.13;12.73;;;9.50;99.90;;;;;;4961010;28;20278;-70
2024/03/22 01:02:33;;;;;;;15.77;13.43;;;9.40;99.90;;;;;;4952340;28;20316;-71
2024/03/22 01:04:59;;;;;;;14.63;13.10;;;9.30;99.90;;;;;;4953695;28;20511;-71
2024/03/22 01:07:24;;;;;;;14.60;12.90;;;9.30;99.90;;;;;;4955329;28;20662;-70
2024/03/22 01:09:50;;;;;;;14.83;13.43;;;9.20;99.90;;;;;;4964218;28;20211;-70
2024/03/22 01:12:15;;;;;;;15.13;13.53;;;9.20;99.90;;;;;;4957691;28;20199;-70
2024/03/22 01:14:41;;;;;;;19.73;14.73;;;9.10;99.90;;;;;;4957179;28;20650;-70
2024/03/22 01:17:06;;;;;;;15.37;13.77;;;9.00;99.90;;;;;;4952053;28;20201;-70
2024/03/22 01:19:33;;;;;;;16.67;13.57;;;9.00;99.90;;;;;;4960954;28;20213;-70
2024/03/22 01:21:58;;;;;;;16.47;13.70;;;9.00;99.90;;;;;;4956830;28;20651;-70
2024/03/22 01:24:23;;;;;;;15.37;13.73;;;9.00;99.90;;;;;;4959767;28;20514;-70
2024/03/22 01:26:49;;;;;;;16.10;14.27;;;9.00;99.90;;;;;;4971947;28;20241;-71
2024/03/22 01:29:14;;;;;;;19.90;14.93;;;9.00;99.90;;;;;;4961875;28;20231;-70
2024/03/22 01:31:40;;;;;;;15.40;13.90;;;8.90;99.90;;;;;;4955262;29;20688;-70
2024/03/22 01:34:05;;;;;;;16.13;14.17;;;8.90;99.90;;;;;;4965029;28;20252;-70
2024/03/22 01:36:31;;;;;;;15.27;13.33;;;8.90;99.90;;;;;;4962303;28;20177;-71
2024/03/22 01:38:57;;;;;;;16.80;15.00;;;8.80;99.90;;;;;;4952477;28;20208;-70
2024/03/22 01:41:23;;;;;;;17.37;14.47;;;8.80;99.90;;;;;;4964468;28;20220;-71
2024/03/22 01:43:48;;;;;;;17.47;13.30;;;8.80;99.90;;;;;;4955775;28;20188;-70
2024/03/22 01:46:14;;;;;;;17.23;14.60;;;8.80;99.90;;;;;;4959596;28;20455;-70
2024/03/22 01:48:40;;;;;;;14.43;12.33;;;8.80;99.90;;;;;;4962567;28;20603;-70
2024/03/22 01:51:05;;;;;;;14.57;13.07;;;8.80;99.90;;;;;;4955616;29;20207;-70
2024/03/22 01:53:32;;;;;;;15.00;12.33;;;8.70;99.90;;;;;;4957586;28;20232;-70
2024/03/22 01:55:58;;;;;;;12.83;11.53;;;8.70;99.90;;;;;;4964320;28;20173;-70
2024/03/22 01:58:24;;;;;;;16.03;13.47;;;8.60;99.90;;;;;;4965081;28;20446;-70
2024/03/22 02:00:50;;;;;;;13.87;12.47;;;8.60;99.90;;;;;;4962698;28;20317;-70
2024/03/22 02:03:15;;;;;;;15.63;13.57;;;8.60;99.90;;;;;;4961953;28;20431;-70
2024/03/22 02:05:41;;;;;;;16.17;13.40;;;8.50;99.90;;;;;;4956276;28;20188;-70
2024/03/22 02:08:06;;;;;;;14.87;13.37;;;8.50;99.90;;;;;;4955392;28;20667;-70
2024/03/22 02:10:32;;;;;;;17.30;12.47;;;8.50;99.90;;;;;;4958364;28;20669;-70
2024/03/22 02:12:57;;;;;;;13.87;12.57;;;8.50;99.90;;;;;;4966865;28;20260;-71
2024/03/22 02:15:23;;;;;;;17.10;12.70;;;8.50;99.90;;;;;;4955988;28;20189;-70
2024/03/22 02:17:49;;;;;;;15.30;13.03;;;8.50;99.90;;;;;;4960165;28;20248;-70
2024/03/22 02:20:14;;;;;;;17.00;14.07;;;8.50;99.90;;;;;;4957277;28;20459;-70
2024/03/22 02:22:40;;;;;;;14.50;13.00;;;8.50;99.90;;;;;;4962858;28;20228;-70
2024/03/22 02:25:07;;;;;;;20.00;16.93;;;8.50;99.90;;;;;;4958700;28;20189;-70
2024/03/22 02:27:32;;;;;;;20.93;18.10;;;8.50;99.90;;;;;;4955564;28;20215;-70
2024/03/22 02:29:58;;;;;;;14.43;12.97;;;8.50;99.90;;;;;;4963358;28;20460;-71
2024/03/22 02:32:23;;;;;;;17.33;14.40;;;8.50;99.90;;;;;;4960380;28;20259;-70
2024/03/22 02:34:49;;;;;;;13.77;12.37;;;8.60;99.90;;;;;;4952796;28;20798;-70
2024/03/22 02:37:14;;;;;;;14.83;13.17;;;8.60;99.90;;;;;;4961992;28;20238;-70
2024/03/22 02:39:40;;;;;;;17.07;12.70;;;8.50;99.90;;;;;;4959450;28;20205;-70
2024/03/22 02:42:06;;;;;;;14.23;12.73;;;8.40;99.90;;;;;;4969101;28;20207;-71
2024/03/22 02:44:31;;;;;;;17.33;12.80;;;8.30;99.90;;;;;;4955113;29;20597;-70
2024/03/22 02:46:57;;;;;;;16.30;12.57;;;8.30;99.90;;;;;;4951129;29;20192;-70
2024/03/22 02:49:22;;;;;;;15.10;13.60;;;8.30;99.90;;;;;;4955053;29;20204;-70
2024/03/22 02:51:48;;;;;;;16.10;13.77;;;8.30;99.90;;;;;;4961604;28;20262;-70
2024/03/22 02:54:14;;;;;;;16.37;13.50;;;8.30;99.90;;;;;;4957118;28;20177;-70
2024/03/22 02:56:39;;;;;;;17.43;13.30;;;8.30;99.90;;;;;;4959506;28;20280;-70
2024/03/22 02:59:05;;;;;;;14.43;12.80;;;8.20;99.90;;;;;;4959117;28;20535;-71
2024/03/22 03:01:30;;;;;;;14.60;13.10;;;8.20;99.90;;;;;;4958705;28;20661;-70
2024/03/22 03:03:56;;;;;;;16.63;13.67;;;8.20;99.90;;;;;;4959476;28;20216;-70
2024/03/22 03:06:21;;;;;;;14.47;13.07;;;8.20;99.90;;;;;;4961858;28;20279;-70
2024/03/22 03:08:47;;;;;;;17.90;13.87;;;8.20;99.90;;;;;;4961274;28;20256;-70
2024/03/22 03:11:14;;;;;;;16.50;14.10;;;8.20;99.90;;;;;;4961530;28;20280;-70
2024/03/22 03:13:39;;;;;;;17.77;14.50;;;8.30;99.90;;;;;;4960140;28;20181;-70
2024/03/22 03:16:05;;;;;;;15.40;13.27;;;8.30;99.90;;;;;;4955136;28;20493;-71
2024/03/22 03:18:31;;;;;;;15.37;13.20;;;8.20;99.90;;;;;;4962542;28;20184;-70
2024/03/22 03:20:56;;;;;;;16.33;12.20;;;8.20;99.90;;;;;;4959243;28;20215;-70
2024/03/22 03:23:22;;;;;;;16.67;13.33;;;8.20;99.90;;;;;;4960601;28;20260;-70
2024/03/22 03:25:47;;;;;;;15.87;12.73;;;8.30;99.90;;;;;;4957197;28;20176;-71
2024/03/22 03:28:13;;;;;;;15.67;12.60;;;8.30;99.90;;;;;;4953802;28;20205;-70
2024/03/22 03:30:39;;;;;;;22.73;13.50;;;8.40;99.90;;;;;;4954501;29;20308;-70
2024/03/22 03:33:05;;;;;;;16.30;13.70;;;8.40;99.90;;;;;;4961854;28;20514;-70
2024/03/22 03:35:30;;;;;;;17.80;13.73;;;8.40;99.90;;;;;;4966826;28;20179;-71
2024/03/22 03:37:56;;;;;;;14.43;11.73;;;8.40;99.90;;;;;;4955579;28;20192;-70
2024/03/22 03:40:24;;;;;;;15.53;13.90;;;8.40;99.90;;;;;;4955826;28;20207;-70
2024/03/22 03:42:50;;;;;;;18.30;13.93;;;8.40;99.90;;;;;;4960877;28;20589;-70
2024/03/22 03:45:15;;;;;;;16.50;13.30;;;8.30;99.90;;;;;;4955766;28;20443;-71
2024/03/22 03:47:41;;;;;;;21.00;14.93;;;8.30;99.90;;;;;;4957061;28;20463;-70
2024/03/22 03:50:06;;;;;;;17.00;13.70;;;8.30;99.90;;;;;;4960282;28;20197;-70
2024/03/22 03:52:32;;;;;;;16.63;12.60;;;8.30;99.90;;;;;;4961424;28;20732;-71
2024/03/22 03:54:57;;;;;;;15.70;13.03;;;8.20;99.90;;;;;;4957337;28;20196;-70
2024/03/22 03:57:23;;;;;;;14.23;12.60;;;8.10;99.90;;;;;;4964350;28;20176;-71
2024/03/22 03:59:49;;;;;;;14.73;13.17;;;8.10;99.90;;;;;;4951477;28;20257;-71
2024/03/22 04:02:14;;;;;;;16.80;12.20;;;8.00;99.90;;;;;;4951781;28;20839;-70
2024/03/22 04:04:40;;;;;;;14.10;11.83;;;8.00;99.90;;;;;;4963370;28;20682;-70
2024/03/22 04:07:05;;;;;;;13.07;11.67;;;8.00;99.90;;;;;;4962225;28;20189;-71
2024/03/22 04:09:31;;;;;;;14.80;12.20;;;8.00;99.90;;;;;;4960404;28;20199;-70
2024/03/22 04:11:58;;;;;;;20.60;13.77;;;8.00;99.90;;;;;;4960038;28;20184;-70
2024/03/22 04:14:24;;;;;;;15.57;12.87;;;8.10;99.90;;;;;;4963280;28;20165;-71
2024/03/22 04:16:50;;;;;;;16.20;13.17;;;8.10;99.90;;;;;;4953187;29;20447;-72
2024/03/22 04:19:15;;;;;;;12.33;11.13;;;8.00;99.90;;;;;;4953739;28;20424;-70
2024/03/22 04:21:41;;;;;;;13.80;12.30;;;7.90;99.90;;;;;;4953166;28;20650;-70
2024/03/22 04:24:06;;;;;;;12.37;11.07;;;8.00;99.90;;;;;;4960207;28;20211;-71
2024/03/22 04:26:32;;;;;;;15.60;14.03;;;8.00;99.90;;;;;;4960890;28;20236;-70
2024/03/22 04:28:57;;;;;;;15.77;14.17;;;8.00;99.90;;;;;;4955819;28;20192;-70
2024/03/22 04:31:23;;;;;;;14.10;12.60;;;8.10;99.90;;;;;;4953361;29;20580;-71
2024/03/22 04:33:48;;;;;;;13.80;11.30;;;8.20;99.90;;;;;;4950373;28;20184;-70
2024/03/22 04:36:15;;;;;;;12.67;11.37;;;8.30;99.90;;;;;;4957845;28;20195;-70
2024/03/22 04:38:41;;;;;;;12.80;11.47;;;8.30;99.90;;;;;;4963887;28;20184;-71
2024/03/22 04:41:06;;;;;;;14.67;13.10;;;8.40;99.90;;;;;;4962051;28;20517;-70
2024/03/22 04:43:32;;;;;;;13.97;12.23;;;8.40;99.90;;;;;;4949934;28;20177;-70
2024/03/22 04:45:57;;;;;;;12.37;10.80;;;8.50;99.90;;;;;;4954979;28;20639;-70
2024/03/22 04:48:23;;;;;;;12.40;11.13;;;8.60;99.90;;;;;;4962709;28;20586;-70
2024/03/22 04:50:50;;;;;;;12.73;11.53;;;8.70;99.90;;;;;;4950135;28;20205;-71
2024/03/22 04:53:17;;;;;;;12.53;11.23;;;8.80;99.90;;;;;;4961214;28;20423;-70
2024/03/22 04:55:44;;;;;;;12.53;11.33;;;8.70;99.90;;;;;;4951732;28;20447;-70
2024/03/22 04:58:16;;;;;;;15.47;12.50;;;8.70;99.90;;;;;;4957281;28;20472;-70
2024/03/22 05:00:42;;;;;;;12.20;10.90;;;8.70;99.90;;;;;;4959645;28;20511;-70
2024/03/22 05:03:08;;;;;;;10.23;9.23;;;8.70;99.90;;;;;;4961117;28;20444;-70
2024/03/22 05:05:34;;;;;;;13.33;12.10;;;8.80;99.90;;;;;;4963074;28;20449;-71
2024/03/22 05:08:01;;;;;;;14.27;11.03;;;8.80;99.90;;;;;;4960616;28;20638;-70
2024/03/22 05:10:28;;;;;;;13.93;11.60;;;8.90;99.90;;;;;;4959317;28;20456;-70
2024/03/22 05:12:54;;;;;;;12.40;11.10;;;8.80;99.90;;;;;;4956505;28;20527;-71
2024/03/22 05:15:20;;;;;;;11.40;10.30;;;8.80;99.90;;;;;;4964715;28;20424;-70
2024/03/22 05:17:45;;;;;;;17.97;12.50;;;8.90;99.90;;;;;;4963358;28;20462;-70
2024/03/22 05:20:11;;;;;;;11.40;10.20;;;8.90;99.90;;;;;;4960912;28;20205;-70
2024/03/22 05:22:37;;;;;;;12.50;11.20;;;8.80;99.90;;;;;;4963360;28;20189;-71
2024/03/22 05:25:03;;;;;;;11.77;10.57;;;8.80;99.90;;;;;;4956363;28;20216;-71
2024/03/22 05:27:31;;;;;;;10.10;8.97;;;8.80;99.90;;;;;;4955353;28;20459;-70
2024/03/22 05:29:56;;;;;;;11.30;10.10;;;8.80;99.90;;;;;;4956736;29;20455;-70
2024/03/22 05:32:22;;;;;;;11.50;10.40;;;8.70;99.90;;;;;;4955918;28;20432;-70
2024/03/22 05:34:47;;;;;;;11.37;10.27;;;8.70;99.90;;;;;;4963456;28;20188;-70
2024/03/22 05:37:13;;;;;;;13.53;10.10;;;8.70;99.90;;;;;;4957990;28;20179;-71
2024/03/22 05:39:40;;;;;;;11.87;10.57;;;8.80;99.90;;;;;;4973590;28;20355;-71
2024/03/22 05:42:06;;;;;;;10.63;9.60;;;8.90;99.90;;;;;;4953198;28;20220;-70
2024/03/22 05:44:32;;;;;;;11.43;10.30;;;8.90;99.90;;;;;;4954348;28;20928;-71
2024/03/22 05:46:57;;;;;;;12.23;10.90;;;8.90;99.90;;;;;;4956599;28;20539;-70
2024/03/22 05:49:23;;;;;;;13.97;10.77;;;8.90;99.90;;;;;;4964466;28;20200;-70
2024/03/22 05:51:48;;;;;;;17.57;13.50;;;8.90;99.90;;;;;;4964088;28;20173;-71
2024/03/22 05:54:14;;;;;;;13.73;12.20;;;8.90;99.90;;;;;;4975020;28;20180;-71
2024/03/22 05:56:40;;;;;;;12.40;11.20;;;8.90;99.90;;;;;;4963301;28;20193;-70
2024/03/22 05:59:05;;;;;;;13.30;11.90;;;8.90;99.90;;;;;;4963871;28;20185;-71
2024/03/22 06:01:32;;;;;;;12.40;10.53;;;8.90;99.90;;;;;;5011346;23;20227;-69
2024/03/22 06:03:58;;;;;;;16.57;11.13;;;9.00;99.90;;;;;;4994951;28;20621;-70
2024/03/22 06:06:25;;;;;;;11.53;10.43;;;9.10;99.90;;;;;;4991861;28;20497;-70
2024/03/22 06:08:56;;;;;;;12.87;10.57;;;9.20;99.90;;;;;;4993556;28;20182;-69
2024/03/22 06:11:22;;;;;;;20.40;11.37;;;9.30;99.90;;;;;;4990133;28;21007;-70
2024/03/22 06:13:48;;;;;;;14.40;11.00;;;9.40;99.90;;;;;;4994035;28;20426;-69
2024/03/22 06:16:13;;;;;;;16.20;13.47;;;9.40;99.90;;;;;;4993698;28;20936;-70
2024/03/22 06:18:39;;;;;;;12.57;11.37;;;9.40;99.90;;;;;;4993540;28;20190;-70
2024/03/22 06:21:05;;;;;;;13.93;12.20;;;9.60;99.90;;;;;;4993467;28;20203;-70
2024/03/22 06:23:31;;;;;;;14.47;13.00;;;9.70;99.90;;;;;;4992169;28;20450;-70
2024/03/22 06:25:56;;;;;;;14.00;10.80;;;9.90;99.90;;;;;;4994404;28;20206;-69
2024/03/22 06:28:22;;;;;;;12.70;11.10;;;10.00;99.90;;;;;;5010464;28;20457;-69
2024/03/22 06:30:49;;;;;;;13.70;12.30;;;10.10;99.90;;;;;;5008880;28;20564;-70
2024/03/22 06:33:14;;;;;;;12.97;11.13;;;10.30;99.90;;;;;;4993796;28;20435;-70
2024/03/22 06:35:43;;;;;;;15.07;11.83;;;10.30;99.90;;;;;;4993774;28;20431;-70
2024/03/22 06:38:08;;;;;;;15.30;12.53;;;10.40;99.90;;;;;;4992947;28;20180;-70
2024/03/22 06:40:34;;;;;;;13.10;11.80;;;10.50;99.90;;;;;;4994311;28;20473;-70
2024/03/22 06:43:00;;;;;;;14.73;12.63;;;10.70;99.90;;;;;;4995302;28;20199;-70
2024/03/22 06:45:26;;;;;;;12.90;11.60;;;10.90;99.90;;;;;;4993378;28;20449;-70
2024/03/22 06:47:51;;;;;;;14.13;12.73;;;11.10;99.90;;;;;;4991348;28;20213;-70
2024/03/22 06:50:24;;;;;;;13.47;10.40;;;11.40;99.90;;;;;;4993110;28;20191;-70
2024/03/22 06:52:50;;;;;;;11.97;10.77;;;11.70;99.90;;;;;;4992535;28;20724;-70
2024/03/22 06:55:15;;;;;;;15.70;10.83;;;11.90;99.90;;;;;;5000194;28;20833;-70
2024/03/22 06:57:41;;;;;;;12.47;11.17;;;12.10;99.90;;;;;;4992771;28;20443;-69
2024/03/22 07:00:09;;;;;;;13.03;10.80;;;12.30;99.90;;;;;;4992210;28;20219;-70
2024/03/22 07:02:35;;;;;;;12.07;10.93;;;12.40;99.90;;;;;;4994291;28;20663;-69
2024/03/22 07:05:01;;;;;;;12.90;9.80;;;12.70;99.90;;;;;;4992356;28;20434;-69
2024/03/22 07:07:26;;;;;;;11.57;10.37;;;13.00;99.90;;;;;;4992280;28;20253;-69
2024/03/22 07:09:52;;;;;;;11.17;10.07;;;13.20;99.90;;;;;;4993752;28;20191;-69
2024/03/22 07:12:17;;;;;;;12.67;10.90;;;13.40;99.90;;;;;;4993850;28;20180;-69
2024/03/22 07:14:43;;;;;;;10.87;9.60;;;13.60;99.90;;;;;;4992201;28;20234;-68
2024/03/22 07:17:08;;;;;;;11.67;10.47;;;13.60;99.90;;;;;;4992622;28;20573;-69
2024/03/22 07:19:34;;;;;;;11.70;10.60;;;13.80;99.90;;;;;;4999053;28;20679;-69
2024/03/22 07:22:00;;;;;;;11.80;10.60;;;13.80;99.90;;;;;;4992632;28;20191;-69
2024/03/22 07:24:25;;;;;;;10.63;9.57;;;13.90;99.90;;;;;;4992045;28;20438;-70
2024/03/22 07:26:51;;;;;;;12.50;10.30;;;14.10;99.90;;;;;;4992398;28;20218;-69
2024/03/22 07:29:17;;;;;;;12.70;11.40;;;14.40;99.90;;;;;;4993486;28;20183;-70
2024/03/22 07:31:43;;;;;;;11.20;10.27;;;14.70;99.90;;;;;;4992864;28;20933;-69
2024/03/22 07:34:08;;;;;;;14.00;10.40;;;14.90;99.90;;;;;;4991714;28;20186;-70
2024/03/22 07:36:38;;;;;;;11.03;10.00;;;15.10;99.90;;;;;;4987933;28;20191;-70
2024/03/22 07:39:05;;;;;;;11.03;9.83;;;15.30;99.90;;;;;;4991990;28;20188;-68
2024/03/22 07:41:32;;;;;;;13.80;12.40;;;15.10;99.90;;;;;;4991549;28;20975;-70
2024/03/22 07:43:59;;;;;;;11.23;10.10;;;15.10;99.90;;;;;;4992174;28;20469;-69
2024/03/22 07:46:24;;;;;;;10.77;9.73;;;15.20;99.90;;;;;;4990318;28;20512;-70
2024/03/22 07:48:50;;;;;;;12.97;9.43;;;15.40;99.90;;;;;;4990880;28;20431;-69
2024/03/22 07:51:15;;;;;;;9.93;9.00;;;15.50;99.90;;;;;;4993000;28;20222;-70
2024/03/22 07:53:41;;;;;;;13.43;9.83;;;15.50;99.90;;;;;;4987286;28;20207;-67
2024/03/22 07:56:06;;;;;;;8.60;7.70;;;15.70;99.90;;;;;;4988566;28;20541;-68
2024/03/22 07:58:32;;;;;;;10.23;8.83;;;15.90;99.90;;;;;;4990469;28;20226;-68
2024/03/22 08:00:57;;;;;;;10.33;9.33;;;15.80;99.90;;;;;;4997259;28;20219;-74
2024/03/22 08:03:23;;;;;;;10.07;8.60;;;16.00;99.90;;;;;;4988860;28;20645;-75
2024/03/22 08:05:49;;;;;;;10.60;9.27;;;16.00;99.90;;;;;;4989495;28;20655;-73
2024/03/22 08:08:14;;;;;;;9.80;8.80;;;16.40;99.90;;;;;;4990310;28;20466;-74
2024/03/22 08:10:40;;;;;;;11.20;9.97;;;16.80;99.90;;;;;;4989301;28;20262;-74
2024/03/22 08:13:05;;;;;;;9.10;8.30;;;16.80;99.90;;;;;;4991001;28;20183;-72
2024/03/22 08:15:31;;;;;;;9.70;8.87;;;17.10;99.90;;;;;;4992499;28;20176;-75
2024/03/22 08:17:57;;;;;;;9.73;8.17;;;17.50;99.90;;;;;;4990960;28;20195;-74
2024/03/22 08:20:23;;;;;;;10.40;9.40;;;17.90;99.90;;;;;;4990006;28;20237;-74
2024/03/22 08:22:49;;;;;;;11.00;10.10;;;18.00;99.90;;;;;;4989039;28;21414;-74
2024/03/22 08:25:17;;;;;;;10.80;7.60;;;18.20;99.90;;;;;;4988884;28;20454;-75
2024/03/22 08:27:43;;;;;;;13.47;8.13;;;18.50;99.90;;;;;;4989220;28;20541;-73
2024/03/22 08:30:10;;;;;;;9.03;8.00;;;18.80;99.90;;;;;;4992224;28;20469;-73
2024/03/22 08:32:35;;;;;;;10.63;8.53;;;19.30;99.90;;;;;;4992727;28;20433;-74
2024/03/22 08:35:01;;;;;;;8.87;7.70;;;19.60;99.90;;;;;;4993816;28;20443;-75
2024/03/22 08:37:27;;;;;;;7.97;7.17;;;20.30;99.40;;;;;;4991581;28;20179;-74
2024/03/22 08:39:52;;;;;;;9.87;8.50;;;20.40;96.30;;;;;;4996480;28;20657;-75
2024/03/22 08:42:18;;;;;;;9.20;8.20;;;20.50;95.90;;;;;;4995763;28;20461;-75
2024/03/22 08:44:44;;;;;;;9.43;7.93;;;20.70;94.50;;;;;;4993305;28;20183;-74
2024/03/22 08:47:10;;;;;;;8.87;8.07;;;20.50;93.70;;;;;;4993082;28;20505;-74
2024/03/22 08:49:36;;;;;;;9.33;8.40;;;20.70;94.10;;;;;;4994539;28;20184;-74
2024/03/22 08:52:02;;;;;;;9.07;8.27;;;21.00;93.10;;;;;;4995372;28;20203;-75
2024/03/22 08:54:27;;;;;;;8.70;6.90;;;21.00;91.70;;;;;;4994720;28;20473;-76
2024/03/22 08:56:53;;;;;;;8.10;7.03;;;20.30;92.40;;;;;;4995159;28;20180;-74
2024/03/22 08:59:18;;;;;;;8.60;7.70;;;20.10;92.40;;;;;;4995400;28;20190;-75
2024/03/22 09:01:44;;;;;;;9.20;8.27;;;19.80;92.40;;;;;;4995308;28;20239;-76
2024/03/22 09:04:10;;;;;;;8.47;7.70;;;20.00;92.80;;;;;;4995169;28;20819;-66
2024/03/22 09:06:35;;;;;;;8.93;8.03;;;20.10;92.10;;;;;;4994110;28;20207;-66
2024/03/22 09:09:01;;;;;;;8.07;7.23;;;19.90;91.50;;;;;;4993799;28;20588;-65
2024/03/22 09:11:26;;;;;;;8.53;7.83;;;19.80;91.60;;;;;;4995836;28;20673;-66
2024/03/22 09:13:55;;;;;;;8.30;7.50;;;19.50;92.30;;;;;;4995922;28;20532;-66
2024/03/22 09:16:21;;;;;;;8.53;7.83;;;19.60;92.10;;;;;;4994196;28;20211;-65
2024/03/22 09:18:46;;;;;;;8.60;7.70;;;20.00;91.40;;;;;;4993552;28;20931;-66
2024/03/22 09:21:12;;;;;;;7.83;7.10;;;20.40;90.20;;;;;;4994669;28;20196;-66
2024/03/22 09:23:37;;;;;;;6.90;6.30;;;20.70;88.30;;;;;;4992312;28;20182;-66
2024/03/22 09:26:03;;;;;;;7.33;6.63;;;20.80;84.40;;;;;;4990084;28;20245;-66
2024/03/22 09:28:28;;;;;;;7.47;6.87;;;21.70;80.10;;;;;;4991725;28;20207;-67
2024/03/22 09:30:54;;;;;;;9.57;8.77;;;21.60;75.30;;;;;;4995062;28;20207;-67
2024/03/22 09:33:19;;;;;;;7.07;5.93;;;22.10;72.60;;;;;;4990810;28;20193;-68
2024/03/22 09:35:45;;;;;;;5.67;5.27;;;23.10;69.50;;;;;;4992850;28;20191;-66
2024/03/22 09:38:10;;;;;;;11.13;5.70;;;22.80;59.90;;;;;;4994373;28;20175;-66
2024/03/22 09:40:41;;;;;;;5.70;5.20;;;22.80;60.10;;;;;;4994493;28;20751;-67
2024/03/22 09:43:08;;;;;;;6.20;5.17;;;24.30;57.00;;;;;;4998693;28;20270;-67
2024/03/22 09:45:34;;;;;;;6.13;5.60;;;25.80;50.20;;;;;;4995386;28;20951;-67
2024/03/22 09:48:00;;;;;;;7.20;6.50;;;27.20;43.70;;;;;;4991773;28;20505;-65
2024/03/22 09:50:26;;;;;;;7.30;6.70;;;27.80;42.00;;;;;;4987301;28;20384;-65
2024/03/22 09:52:52;;;;;;;11.83;6.30;;;27.20;41.90;;;;;;4994611;28;20176;-64
2024/03/22 09:55:23;;;;;;;5.83;5.30;;;25.70;42.50;;;;;;4995534;28;21211;-67
2024/03/22 09:57:53;;;;;;;6.20;5.70;;;25.10;43.50;;;;;;4991663;28;20935;-68
2024/03/22 10:00:22;;;;;;;6.07;5.60;;;25.90;43.00;;;;;;4992590;28;20470;-66
2024/03/22 10:02:48;;;;;;;5.60;5.10;;;26.90;40.50;;;;;;4994567;28;20449;-65
2024/03/22 10:05:14;;;;;;;5.90;5.40;;;27.00;37.40;;;;;;4994684;28;20985;-65
2024/03/22 10:07:41;;;;;;;6.37;5.27;;;25.30;38.90;;;;;;5000364;28;20461;-66
2024/03/22 10:10:07;;;;;;;8.30;5.93;;;25.00;40.80;;;;;;4994212;28;20669;-65
2024/03/22 10:12:33;;;;;;;6.83;5.67;;;25.00;40.50;;;;;;4992824;28;20521;-65
2024/03/22 10:14:58;;;;;;;5.53;5.03;;;25.90;39.10;;;;;;5000045;28;20521;-65
2024/03/22 10:17:27;;;;;;;6.47;5.80;;;26.30;38.00;;;;;;4992492;28;20233;-66
2024/03/22 10:19:53;;;;;;;5.73;5.20;;;25.30;38.90;;;;;;4992916;28;20207;-66
2024/03/22 10:22:18;;;;;;;5.47;5.00;;;25.20;39.60;;;;;;4993625;28;20445;-65
2024/03/22 10:24:44;;;;;;;6.53;5.93;;;25.00;39.60;;;;;;4992232;28;20239;-66
2024/03/22 10:27:10;;;;;;;6.73;5.60;;;23.60;40.60;;;;;;4992776;28;20681;-66
2024/03/22 10:29:36;;;;;;;5.87;5.37;;;23.60;41.00;;;;;;4991391;28;20171;-66
2024/03/22 10:32:02;;;;;;;5.83;5.33;;;23.70;41.50;;;;;;4991716;28;20653;-66
2024/03/22 10:34:28;;;;;;;6.80;6.20;;;24.70;41.00;;;;;;4992008;28;20521;-66
2024/03/22 10:36:55;;;;;;;7.23;5.77;;;25.50;39.10;;;;;;4992500;28;20779;-66
2024/03/22 10:39:23;;;;;;;6.87;5.57;;;25.80;39.00;;;;;;4991552;28;20458;-66
2024/03/22 10:41:49;;;;;;;6.97;6.37;;;25.40;39.20;;;;;;4992760;28;20449;-66
2024/03/22 10:44:15;;;;;;;5.83;5.33;;;25.70;39.30;;;;;;4994964;28;20430;-67
2024/03/22 10:46:46;;;;;;;6.63;6.00;;;26.00;38.80;;;;;;4990557;28;20700;-67
2024/03/22 10:49:21;;;;;;;7.97;6.87;;;26.40;38.10;;;;;;4993602;28;20466;-65
2024/03/22 10:51:56;;;;;;;8.60;7.90;;;26.30;37.50;;;;;;4992307;28;20442;-65
2024/03/22 10:54:25;;;;;;;7.50;6.80;;;27.00;37.00;;;;;;4989177;28;20470;-65
2024/03/22 10:56:51;;;;;;;7.23;4.40;;;27.10;35.30;;;;;;4990494;28;20446;-67
2024/03/22 10:59:21;;;;;;;5.87;5.30;;;26.40;35.70;;;;;;4995767;28;20915;-66
2024/03/22 11:01:47;;;;;;;7.13;5.40;;;27.20;34.60;;;;;;4993610;28;20241;-67
2024/03/22 11:04:15;;;;;;;5.20;4.67;;;28.20;33.90;;;;;;4992726;28;20435;-67
2024/03/22 11:06:40;;;;;;;4.63;4.17;;;30.10;29.80;;;;;;4991814;28;20721;-67
2024/03/22 11:09:07;;;;;;;4.23;3.83;;;30.70;27.60;;;;;;4993232;28;20459;-67
2024/03/22 11:11:38;;;;;;;3.97;3.60;;;31.10;26.90;;;;;;4991542;28;20577;-67
2024/03/22 11:14:04;;;;;;;5.30;3.30;;;30.90;26.50;;;;;;4993281;28;20502;-67
2024/03/22 11:16:30;;;;;;;4.60;4.20;;;32.20;24.90;;;;;;4991021;28;20517;-62
2024/03/22 11:18:55;;;;;;;4.87;4.40;;;31.90;25.70;;;;;;4993224;28;20175;-62
2024/03/22 11:21:21;;;;;;;5.77;5.37;;;31.40;25.20;;;;;;4992704;28;20549;-62
2024/03/22 11:23:47;;;;;;;4.00;3.80;;;32.20;24.50;;;;;;5000651;28;20658;-61
2024/03/22 11:26:13;;;;;;;4.00;3.70;;;31.30;23.80;;;;;;4997913;28;20347;-63
2024/03/22 11:28:39;;;;;;;4.73;4.17;;;30.70;25.00;;;;;;4998267;28;20202;-63
2024/03/22 11:31:05;;;;;;;4.07;3.77;;;32.10;25.50;;;;;;4994007;28;20649;-63
2024/03/22 11:33:31;;;;;;;5.17;4.70;;;33.70;23.70;;;;;;4992313;28;20555;-63
2024/03/22 11:36:01;;;;;;;5.23;4.87;;;34.30;23.60;;;;;;5003292;28;20206;-59
2024/03/22 11:38:30;;;;;;;5.07;4.67;;;33.90;21.50;;;;;;5012162;28;20907;-59
2024/03/22 11:40:58;;;;;;;3.83;3.60;;;33.20;22.50;;;;;;4997945;28;20466;-63
2024/03/22 11:43:23;;;;;;;4.10;3.80;;;31.40;22.40;;;;;;4991033;28;20446;-63
2024/03/22 11:45:49;;;;;;;3.57;3.27;;;31.60;23.50;;;;;;4991938;28;20481;-63
2024/03/22 11:48:16;;;;;;;3.63;3.43;;;33.40;21.70;;;;;;4992088;28;20207;-63
2024/03/22 11:50:42;;;;;;;3.70;3.50;;;34.50;19.80;;;;;;4992610;28;20231;-64
2024/03/22 11:53:08;;;;;;;4.27;3.87;;;31.40;20.60;;;;;;4989150;28;20637;-62
2024/03/22 11:55:36;;;;;;;4.40;4.10;;;27.80;23.00;;;;;;4992493;28;20194;-60
2024/03/22 11:58:01;;;;;;;3.53;3.33;;;26.60;25.80;;;;;;4989678;28;20581;-64
2024/03/22 12:00:28;;;;;;;3.80;3.47;;;26.70;24.30;;;;;;5006623;23;20500;-69
2024/03/22 12:02:53;;;;;;;5.83;3.10;;;27.20;24.70;;;;;;4952189;28;20185;-68
2024/03/22 12:05:20;;;;;;;3.37;3.07;;;27.80;24.40;;;;;;4962252;28;20440;-68
2024/03/22 12:07:46;;;;;;;3.97;2.80;;;28.50;23.80;;;;;;4950374;28;20429;-68
2024/03/22 12:10:11;;;;;;;6.50;4.70;;;28.90;23.50;;;;;;4945390;28;20500;-68
2024/03/22 12:12:37;;;;;;;3.20;2.90;;;29.30;23.50;;;;;;4951903;28;20219;-68
2024/03/22 12:15:03;;;;;;;3.50;3.20;;;28.50;23.20;;;;;;4964147;28;20176;-68
2024/03/22 12:17:29;;;;;;;4.40;3.57;;;28.00;24.30;;;;;;4961837;28;20239;-68
2024/03/22 12:19:55;;;;;;;3.53;3.23;;;26.40;25.00;;;;;;4958266;28;20886;-68
2024/03/22 12:22:22;;;;;;;3.80;3.50;;;25.50;25.60;;;;;;4958655;28;20650;-68
2024/03/22 12:24:47;;;;;;;5.50;3.60;;;25.40;26.50;;;;;;4958357;28;20436;-68
2024/03/22 12:27:13;;;;;;;4.00;3.70;;;25.60;26.60;;;;;;4958851;28;20862;-67
2024/03/22 12:29:38;;;;;;;2.93;2.73;;;24.80;27.00;;;;;;4958820;28;20209;-67
2024/03/22 12:32:04;;;;;;;4.13;3.77;;;24.10;27.50;;;;;;4956236;28;20644;-67